createdAt,value
2019-04-11T00:01:36.833Z,20.62
2019-04-11T00:03:59.859Z,20.62
2019-04-11T00:06:29.753Z,20.60
2019-04-11T00:09:00.611Z,20.61
2019-04-11T00:11:30.353Z,20.58
2019-04-11T00:13:59.965Z,20.60
2019-04-11T00:16:29.479Z,20.57
2019-04-11T00:18:59.339Z,20.57
2019-04-11T00:21:28.925Z,20.56
2019-04-11T00:23:58.697Z,20.55
2019-04-11T00:26:28.637Z,20.55
2019-04-11T00:28:58.485Z,20.53
2019-04-11T00:31:28.528Z,20.54
2019-04-11T00:33:58.425Z,20.52
2019-04-11T00:36:28.449Z,20.52
2019-04-11T00:38:58.284Z,20.52
2019-04-11T00:41:30.058Z,20.51
2019-04-11T00:44:00.853Z,20.47
2019-04-11T00:46:30.730Z,20.46
2019-04-11T00:49:00.286Z,20.47
2019-04-11T00:51:29.847Z,20.45
2019-04-11T00:54:00.472Z,20.46
2019-04-11T00:56:30.555Z,20.46
2019-04-11T00:59:00.395Z,20.43
2019-04-11T01:01:31.511Z,20.44
2019-04-11T01:04:01.347Z,20.41
2019-04-11T01:06:31.044Z,20.42
2019-04-11T01:09:00.588Z,20.41
2019-04-11T01:11:30.139Z,20.40
2019-04-11T01:13:59.675Z,20.39
2019-04-11T01:16:38.901Z,20.38
2019-04-11T01:19:08.777Z,20.38
2019-04-11T01:21:38.306Z,20.37
2019-04-11T01:24:09.241Z,20.36
2019-04-11T01:26:38.834Z,20.36
2019-04-11T01:29:09.239Z,20.35
2019-04-11T01:31:39.905Z,20.35
2019-04-11T01:34:10.638Z,20.33
2019-04-11T01:36:40.273Z,20.33
2019-04-11T01:39:23.877Z,20.32
2019-04-11T01:41:53.690Z,20.32
2019-04-11T01:44:23.559Z,20.32
2019-04-11T01:46:54.150Z,20.31
2019-04-11T01:49:24.078Z,20.30
2019-04-11T01:51:53.960Z,20.29
2019-04-11T01:54:23.826Z,20.29
2019-04-11T01:56:53.774Z,20.29
2019-04-11T01:59:23.637Z,20.28
2019-04-11T02:02:12.219Z,20.27
2019-04-11T02:04:54.381Z,20.28
2019-04-11T02:07:24.733Z,20.26
2019-04-11T02:09:54.752Z,20.25
2019-04-11T02:12:24.432Z,20.23
2019-04-11T02:14:54.006Z,20.25
2019-04-11T02:17:24.382Z,20.23
2019-04-11T02:19:54.450Z,20.23
2019-04-11T02:22:42.392Z,20.23
2019-04-11T02:25:37.008Z,20.21
2019-04-11T02:28:08.494Z,20.22
2019-04-11T02:30:41.720Z,20.20
2019-04-11T02:33:13.514Z,20.20
2019-04-11T02:35:46.052Z,20.19
2019-04-11T02:38:16.019Z,20.19
2019-04-11T02:40:47.448Z,20.19
2019-04-11T02:43:17.683Z,20.18
2019-04-11T02:46:00.090Z,20.17
2019-04-11T02:48:20.681Z,20.18
2019-04-11T02:50:50.930Z,20.17
2019-04-11T02:53:21.294Z,20.17
2019-04-11T02:55:52.146Z,20.16
2019-04-11T02:58:23.031Z,20.15
2019-04-11T03:00:55.403Z,20.14
2019-04-11T03:03:25.279Z,20.14
2019-04-11T03:05:55.902Z,20.12
2019-04-11T03:08:28.189Z,20.13
2019-04-11T03:10:58.119Z,20.12
2019-04-11T03:13:29.428Z,20.11
2019-04-11T03:16:19.262Z,20.09
2019-04-11T03:18:45.952Z,20.11
2019-04-11T03:21:10.587Z,20.10
2019-04-11T03:23:35.522Z,20.10
2019-04-11T03:28:36.411Z,20.07
2019-04-11T03:37:00.226Z,20.07
2019-04-11T03:39:00.235Z,20.06
2019-04-11T03:41:26.765Z,20.05
2019-04-11T03:43:53.965Z,20.06
2019-04-11T03:46:30.882Z,20.04
2019-04-11T03:48:57.755Z,20.03
2019-04-11T03:51:17.962Z,20.03
2019-04-11T03:53:49.061Z,20.03
2019-04-11T03:56:21.816Z,20.03
2019-04-11T03:58:50.440Z,20.01
2019-04-11T04:01:21.233Z,20.03
2019-04-11T04:03:53.412Z,20.04
2019-04-11T04:06:23.357Z,20.04
2019-04-11T04:08:53.606Z,20.03
2019-04-11T04:11:27.718Z,20.02
2019-04-11T04:14:28.478Z,20.01
2019-04-11T04:17:12.435Z,20.01
2019-04-11T04:19:59.562Z,19.99
2019-04-11T04:22:49.964Z,19.99
2019-04-11T04:25:21.365Z,19.99
2019-04-11T04:27:51.389Z,19.99
2019-04-11T04:30:21.887Z,19.99
2019-04-11T04:32:52.188Z,19.97
2019-04-11T04:35:25.237Z,19.97
2019-04-11T04:37:54.511Z,19.97
2019-04-11T04:40:41.057Z,19.95
2019-04-11T04:42:58.173Z,19.96
2019-04-11T04:45:27.634Z,19.96
2019-04-11T04:48:03.391Z,19.96
2019-04-11T04:50:30.571Z,19.95
2019-04-11T04:53:01.025Z,19.94
2019-04-11T04:55:32.660Z,19.95
2019-04-11T04:58:02.747Z,19.94
2019-04-11T05:00:34.705Z,19.95
2019-04-11T05:03:05.534Z,19.95
2019-04-11T05:05:35.790Z,19.96
2019-04-11T05:08:06.128Z,19.96
2019-04-11T05:10:36.001Z,19.96
2019-04-11T05:13:05.839Z,19.95
2019-04-11T05:15:36.602Z,19.96
2019-04-11T05:18:06.374Z,19.95
2019-04-11T05:20:36.381Z,19.95
2019-04-11T05:23:06.374Z,19.96
2019-04-11T05:25:36.962Z,19.97
2019-04-11T05:28:07.537Z,19.97
2019-04-11T05:30:37.182Z,19.98
2019-04-11T05:33:06.793Z,19.97
2019-04-11T05:35:36.447Z,19.99
2019-04-11T05:38:05.972Z,19.99
2019-04-11T05:40:35.562Z,19.99
2019-04-11T05:43:05.991Z,19.97
2019-04-11T05:45:36.034Z,19.96
2019-04-11T05:48:09.322Z,19.97
2019-04-11T05:50:46.310Z,19.96
2019-04-11T05:53:12.049Z,19.95
2019-04-11T05:55:45.407Z,19.94
2019-04-11T05:58:15.918Z,19.95
2019-04-11T06:00:57.864Z,19.94
2019-04-11T06:03:28.331Z,19.96
2019-04-11T06:06:20.500Z,19.95
2019-04-11T06:08:51.476Z,19.97
2019-04-11T06:11:57.549Z,19.97
2019-04-11T06:14:31.227Z,19.99
2019-04-11T06:17:05.075Z,20.00
2019-04-11T06:19:53.553Z,20.02
2019-04-11T06:22:23.479Z,20.03
2019-04-11T06:25:11.324Z,20.07
2019-04-11T06:27:50.376Z,20.10
2019-04-11T06:30:45.000Z,20.14
2019-04-11T06:33:24.722Z,20.19
2019-04-11T06:36:19.037Z,20.23
2019-04-11T06:39:13.867Z,20.30
2019-04-11T06:41:59.113Z,20.34
2019-04-11T06:44:59.927Z,20.43
2019-04-11T06:47:51.394Z,20.51
2019-04-11T06:50:39.639Z,20.57
2019-04-11T06:53:11.457Z,20.64
2019-04-11T06:55:57.373Z,20.69
2019-04-11T06:58:31.867Z,20.74
2019-04-11T07:01:05.502Z,20.80
2019-04-11T07:03:40.595Z,20.83
2019-04-11T07:06:17.536Z,20.89
2019-04-11T07:09:05.495Z,20.96
2019-04-11T07:11:47.053Z,21.05
2019-04-11T07:14:50.710Z,21.14
2019-04-11T07:17:38.610Z,21.21
2019-04-11T07:20:43.475Z,21.30
2019-04-11T07:23:31.055Z,21.36
2019-04-11T07:26:18.884Z,21.41
2019-04-11T07:29:23.869Z,21.46
2019-04-11T07:32:05.724Z,21.52
2019-04-11T07:35:17.352Z,21.54
2019-04-11T07:37:53.294Z,21.58
2019-04-11T07:40:47.865Z,21.62
2019-04-11T07:43:29.307Z,21.65
2019-04-11T07:46:18.825Z,21.66
2019-04-11T07:48:48.426Z,21.70
2019-04-11T07:51:36.432Z,21.72
2019-04-11T07:54:15.719Z,21.72
2019-04-11T07:57:04.425Z,21.74
2019-04-11T07:59:59.970Z,21.75
2019-04-11T08:02:47.888Z,21.77
2019-04-11T08:05:39.319Z,21.75
2019-04-11T08:08:41.137Z,21.73
2019-04-11T08:11:17.827Z,21.74
2019-04-11T08:14:06.352Z,21.75
2019-04-11T08:16:53.784Z,21.78
2019-04-11T08:19:41.061Z,21.79
2019-04-11T08:22:21.003Z,21.78
2019-04-11T08:25:00.845Z,21.80
2019-04-11T08:27:34.359Z,21.82
2019-04-11T08:30:03.927Z,21.83
2019-04-11T08:32:46.437Z,21.82
2019-04-11T08:35:28.242Z,21.83
2019-04-11T08:38:04.536Z,21.84
2019-04-11T08:40:39.296Z,21.83
2019-04-11T08:43:11.238Z,21.84
2019-04-11T08:45:45.141Z,21.83
2019-04-11T08:48:15.046Z,21.84
2019-04-11T08:50:48.047Z,21.85
2019-04-11T08:53:40.648Z,21.87
2019-04-11T08:56:10.670Z,21.87
2019-04-11T08:59:05.138Z,21.86
2019-04-11T09:01:34.714Z,21.85
2019-04-11T09:04:18.989Z,21.86
2019-04-11T09:06:49.206Z,21.85
2019-04-11T09:09:31.396Z,21.86
2019-04-11T09:12:04.449Z,21.85
2019-04-11T09:14:52.680Z,21.84
2019-04-11T09:17:26.074Z,21.83
2019-04-11T09:20:13.721Z,21.81
2019-04-11T09:22:57.390Z,21.78
2019-04-11T09:25:45.742Z,21.74
2019-04-11T09:28:32.060Z,21.71
2019-04-11T09:31:27.583Z,21.69
2019-04-11T09:34:17.453Z,21.67
2019-04-11T09:37:06.179Z,21.63
2019-04-11T09:40:10.078Z,21.60
2019-04-11T09:42:53.479Z,21.57
2019-04-11T09:45:54.351Z,21.54
2019-04-11T09:48:31.809Z,21.51
2019-04-11T09:51:29.026Z,21.48
2019-04-11T09:54:03.571Z,21.42
2019-04-11T09:56:51.767Z,21.41
2019-04-11T09:59:29.615Z,21.38
2019-04-11T10:02:16.964Z,21.36
2019-04-11T10:04:46.589Z,21.36
2019-04-11T10:07:33.817Z,21.35
2019-04-11T10:10:35.265Z,21.33
2019-04-11T10:13:22.611Z,21.35
2019-04-11T10:16:05.171Z,21.33
2019-04-11T10:18:53.638Z,21.34
2019-04-11T10:21:24.671Z,21.34
2019-04-11T10:24:09.486Z,21.30
2019-04-11T10:26:42.812Z,21.30
2019-04-11T10:29:34.624Z,21.30
2019-04-11T10:32:04.301Z,21.28
2019-04-11T10:35:01.870Z,21.27
2019-04-11T10:37:33.820Z,21.25
2019-04-11T10:40:28.686Z,21.25
2019-04-11T10:42:58.426Z,21.23
2019-04-11T10:45:32.976Z,21.21
2019-04-11T10:48:05.518Z,21.18
2019-04-11T10:51:08.818Z,21.18
2019-04-11T10:53:39.459Z,21.18
2019-04-11T10:56:26.525Z,21.17
2019-04-11T10:58:57.873Z,21.15
2019-04-11T11:02:01.471Z,21.14
2019-04-11T11:04:36.783Z,21.13
2019-04-11T11:07:26.823Z,21.13
2019-04-11T11:10:07.496Z,21.12
2019-04-11T11:12:47.468Z,21.09
2019-04-11T11:15:23.330Z,21.09
2019-04-11T11:18:39.895Z,21.08
2019-04-11T11:20:54.373Z,21.07
2019-04-11T11:23:37.413Z,21.05
2019-04-11T11:26:12.591Z,21.04
2019-04-11T11:29:14.788Z,21.04
2019-04-11T11:31:45.838Z,21.03
2019-04-11T11:34:25.383Z,21.02
2019-04-11T11:37:13.131Z,21.02
2019-04-11T11:40:04.404Z,21.00
2019-04-11T11:42:51.052Z,21.00
2019-04-11T11:45:31.559Z,21.00
2019-04-11T11:48:13.669Z,21.00
2019-04-11T11:50:37.661Z,20.99
2019-04-11T11:53:41.308Z,20.98
2019-04-11T11:56:11.358Z,20.98
2019-04-11T11:59:00.006Z,20.97
2019-04-11T12:01:29.939Z,20.98
2019-04-11T12:04:23.881Z,20.97
2019-04-11T12:06:58.070Z,20.96
2019-04-11T12:09:41.129Z,20.95
2019-04-11T12:12:15.692Z,20.97
2019-04-11T12:15:04.531Z,20.96
2019-04-11T12:17:52.000Z,20.96
2019-04-11T12:20:27.106Z,20.94
2019-04-11T12:22:58.987Z,20.95
2019-04-11T12:25:33.350Z,20.94
2019-04-11T12:28:21.907Z,20.94
2019-04-11T12:31:00.590Z,20.95
2019-04-11T12:33:57.655Z,20.94
2019-04-11T12:36:30.802Z,20.94
2019-04-11T12:39:19.296Z,20.93
2019-04-11T12:41:53.154Z,20.94
2019-04-11T12:44:50.873Z,20.93
2019-04-11T12:47:38.228Z,20.93
2019-04-11T12:50:29.423Z,20.93
2019-04-11T12:53:21.392Z,20.93
2019-04-11T12:56:05.856Z,20.92
2019-04-11T12:58:53.809Z,20.92
2019-04-11T13:01:40.984Z,20.92
2019-04-11T13:04:28.156Z,20.90
2019-04-11T13:07:22.795Z,20.92
2019-04-11T13:10:11.400Z,20.90
2019-04-11T13:12:58.883Z,20.90
2019-04-11T13:15:47.424Z,20.92
2019-04-11T13:18:45.335Z,20.92
2019-04-11T13:21:21.548Z,20.90
2019-04-11T13:24:10.100Z,20.90
2019-04-11T13:27:14.195Z,20.90
2019-04-11T13:30:02.744Z,20.90
2019-04-11T13:32:42.763Z,20.91
2019-04-11T13:35:22.905Z,20.90
2019-04-11T13:38:09.588Z,20.90
2019-04-11T13:40:58.467Z,20.90
2019-04-11T13:43:32.083Z,20.91
2019-04-11T13:46:19.356Z,20.91
2019-04-11T13:49:01.606Z,20.92
2019-04-11T13:51:49.327Z,20.92
2019-04-11T13:54:36.578Z,20.92
2019-04-11T13:57:24.477Z,20.90
2019-04-11T14:00:12.006Z,20.90
2019-04-11T14:02:59.749Z,20.90
2019-04-11T14:05:29.469Z,20.91
2019-04-11T14:07:59.110Z,20.91
2019-04-11T14:10:31.493Z,20.91
2019-04-11T14:13:03.016Z,20.92
2019-04-11T14:15:31.341Z,20.93
2019-04-11T14:18:18.781Z,20.92
2019-04-11T14:20:53.441Z,20.93
2019-04-11T14:23:42.682Z,20.93
2019-04-11T14:26:29.997Z,20.92
2019-04-11T14:29:18.529Z,20.93
2019-04-11T14:32:05.705Z,20.93
2019-04-11T14:34:47.757Z,20.92
2019-04-11T14:37:38.365Z,20.93
2019-04-11T14:40:30.204Z,20.93
2019-04-11T14:43:21.543Z,20.93
2019-04-11T14:46:15.742Z,20.94
2019-04-11T14:48:47.879Z,20.94
2019-04-11T14:51:54.797Z,20.93
2019-04-11T14:54:28.178Z,20.93
2019-04-11T14:57:11.544Z,20.94
2019-04-11T14:59:44.544Z,20.94
2019-04-11T15:02:18.717Z,20.95
2019-04-11T15:05:13.916Z,20.96
2019-04-11T15:07:43.721Z,20.95
2019-04-11T15:10:43.059Z,20.96
2019-04-11T15:13:15.771Z,20.95
2019-04-11T15:16:11.122Z,20.95
2019-04-11T15:18:46.476Z,20.95
2019-04-11T15:21:23.888Z,20.95
2019-04-11T15:23:54.140Z,20.95
2019-04-11T15:26:50.599Z,20.96
2019-04-11T15:29:39.135Z,20.95
2019-04-11T15:32:26.067Z,20.96
2019-04-11T15:34:58.670Z,20.98
2019-04-11T15:37:47.284Z,20.98
2019-04-11T15:40:25.781Z,20.97
2019-04-11T15:43:13.144Z,20.98
2019-04-11T15:46:04.191Z,20.98
2019-04-11T15:48:58.653Z,20.99
2019-04-11T15:51:36.067Z,20.99
2019-04-11T15:54:24.852Z,20.99
2019-04-11T15:57:01.583Z,20.98
2019-04-11T15:59:55.903Z,20.99
2019-04-11T16:02:53.897Z,20.99
2019-04-11T16:05:48.684Z,21.00
2019-04-11T16:08:38.911Z,21.01
2019-04-11T16:11:19.713Z,21.01
2019-04-11T16:14:14.423Z,21.01
2019-04-11T16:16:53.434Z,21.01
2019-04-11T16:19:42.145Z,21.00
2019-04-11T16:22:33.708Z,21.01
2019-04-11T16:25:06.073Z,21.01
2019-04-11T16:28:07.119Z,21.00
2019-04-11T16:30:59.615Z,21.00
2019-04-11T16:33:46.274Z,21.00
2019-04-11T16:36:28.923Z,21.00
2019-04-11T16:39:24.482Z,21.00
2019-04-11T16:41:59.407Z,21.00
2019-04-11T16:44:54.703Z,21.00
2019-04-11T16:47:40.754Z,21.00
2019-04-11T16:50:10.315Z,20.99
2019-04-11T16:52:39.904Z,21.00
2019-04-11T16:55:10.090Z,21.01
2019-04-11T16:57:44.013Z,21.02
2019-04-11T17:00:11.497Z,21.02
2019-04-11T17:02:41.110Z,21.02
2019-04-11T17:05:11.545Z,21.03
2019-04-11T17:08:00.103Z,21.03
2019-04-11T17:10:47.609Z,21.03
2019-04-11T17:13:17.349Z,21.05
2019-04-11T17:15:46.935Z,21.05
2019-04-11T17:18:18.850Z,21.05
2019-04-11T17:20:47.811Z,21.06
2019-04-11T17:23:17.838Z,21.07
2019-04-11T17:25:52.365Z,21.06
2019-04-11T17:28:22.843Z,21.08
2019-04-11T17:30:50.134Z,21.09
2019-04-11T17:33:19.697Z,21.11
2019-04-11T17:35:49.542Z,21.10
2019-04-11T17:38:19.415Z,21.12
2019-04-11T17:40:48.890Z,21.12
2019-04-11T17:43:18.733Z,21.11
2019-04-11T17:45:48.302Z,21.09
2019-04-11T17:48:17.879Z,21.08
2019-04-11T17:50:47.460Z,21.07
2019-04-11T17:53:17.064Z,21.06
2019-04-11T17:55:46.632Z,21.05
2019-04-11T17:58:16.238Z,21.04
2019-04-11T18:00:50.633Z,21.04
2019-04-11T18:03:20.221Z,21.03
2019-04-11T18:05:49.796Z,21.03
2019-04-11T18:08:20.189Z,21.02
2019-04-11T18:10:50.589Z,21.01
2019-04-11T18:13:20.310Z,21.01
2019-04-11T18:15:49.888Z,21.01
2019-04-11T18:18:19.470Z,21.00
2019-04-11T18:20:49.031Z,20.99
2019-04-11T18:23:19.842Z,21.00
2019-04-11T18:25:51.120Z,20.99
2019-04-11T18:28:21.967Z,20.98
2019-04-11T18:30:54.028Z,20.99
2019-04-11T18:33:23.364Z,20.98
2019-04-11T18:35:52.906Z,20.97
2019-04-11T18:38:22.448Z,20.98
2019-04-11T18:40:52.320Z,20.97
2019-04-11T18:43:21.874Z,21.00
2019-04-11T18:45:51.426Z,21.00
2019-04-11T18:48:20.996Z,20.99
2019-04-11T18:50:50.787Z,20.98
2019-04-11T18:53:21.789Z,20.97
2019-04-11T18:55:51.474Z,20.97
2019-04-11T18:58:21.061Z,20.97
2019-04-11T19:00:50.619Z,20.97
2019-04-11T19:03:20.195Z,20.96
2019-04-11T19:05:49.738Z,20.95
2019-04-11T19:08:19.344Z,20.95
2019-04-11T19:10:48.894Z,20.94
2019-04-11T19:13:18.462Z,20.94
2019-04-11T19:15:48.042Z,20.95
2019-04-11T19:18:17.654Z,20.93
2019-04-11T19:20:50.011Z,20.93
2019-04-11T19:23:18.858Z,20.93
2019-04-11T19:25:48.447Z,20.93
2019-04-11T19:28:18.000Z,20.93
2019-04-11T19:30:47.694Z,20.92
2019-04-11T19:33:19.240Z,20.90
2019-04-11T19:35:48.883Z,20.90
2019-04-11T19:38:26.351Z,20.91
2019-04-11T19:40:55.964Z,20.92
2019-04-11T19:43:25.532Z,20.93
2019-04-11T19:45:55.083Z,20.93
2019-04-11T19:48:25.247Z,20.92
2019-04-11T19:50:58.582Z,20.92
2019-04-11T19:53:27.474Z,20.93
2019-04-11T19:56:19.835Z,20.92
2019-04-11T19:58:49.376Z,20.93
2019-04-11T20:01:22.830Z,20.93
2019-04-11T20:03:53.810Z,20.93
2019-04-11T20:06:21.730Z,20.94
2019-04-11T20:08:51.274Z,20.93
2019-04-11T20:11:20.822Z,20.92
2019-04-11T20:13:50.466Z,20.90
2019-04-11T20:16:20.019Z,20.92
2019-04-11T20:18:51.142Z,20.93
2019-04-11T20:21:21.061Z,20.92
2019-04-11T20:23:50.714Z,20.94
2019-04-11T20:26:21.096Z,20.95
2019-04-11T20:28:51.689Z,20.96
2019-04-11T20:31:21.618Z,20.97
2019-04-11T20:33:51.214Z,20.96
2019-04-11T20:36:32.574Z,20.98
2019-04-11T20:38:52.702Z,20.98
2019-04-11T20:41:23.284Z,20.96
2019-04-11T20:43:56.966Z,20.96
2019-04-11T20:46:28.890Z,20.95
2019-04-11T20:48:56.763Z,20.95
2019-04-11T20:51:26.651Z,20.95
2019-04-11T20:53:56.957Z,20.95
2019-04-11T20:56:26.883Z,20.94
2019-04-11T20:58:56.517Z,20.94
2019-04-11T21:01:26.739Z,20.94
2019-04-11T21:04:00.132Z,20.93
2019-04-11T21:06:31.624Z,20.93
2019-04-11T21:09:02.859Z,20.94
2019-04-11T21:11:30.047Z,20.96
2019-04-11T21:13:59.982Z,20.96
2019-04-11T21:16:29.554Z,20.96
2019-04-11T21:18:59.207Z,20.96
2019-04-11T21:21:29.091Z,20.97
2019-04-11T21:24:00.539Z,20.97
2019-04-11T21:26:29.969Z,20.98
2019-04-11T21:28:59.546Z,20.97
2019-04-11T21:31:31.243Z,20.96
2019-04-11T21:34:02.280Z,20.95
2019-04-11T21:36:32.286Z,20.95
2019-04-11T21:39:03.935Z,20.95
2019-04-11T21:41:36.032Z,20.93
2019-04-11T21:44:06.103Z,20.93
2019-04-11T21:46:38.140Z,20.92
2019-04-11T21:49:07.262Z,20.92
2019-04-11T21:51:41.281Z,20.92
2019-04-11T21:54:08.355Z,20.90
2019-04-11T21:56:38.231Z,20.91
2019-04-11T21:59:08.285Z,20.91
2019-04-11T22:01:38.137Z,20.91
2019-04-11T22:04:07.685Z,20.90
2019-04-11T22:06:37.303Z,20.89
2019-04-11T22:09:07.249Z,20.89
2019-04-11T22:11:38.417Z,20.89
2019-04-11T22:14:11.008Z,20.89
2019-04-11T22:16:44.119Z,20.89
2019-04-11T22:19:13.997Z,20.87
2019-04-11T22:21:45.066Z,20.86
2019-04-11T22:24:13.386Z,20.87
2019-04-11T22:26:42.933Z,20.86
2019-04-11T22:29:12.513Z,20.85
2019-04-11T22:31:42.100Z,20.84
2019-04-11T22:34:39.631Z,20.84
2019-04-11T22:37:09.188Z,20.83
2019-04-11T22:39:39.045Z,20.83
2019-04-11T22:42:08.718Z,20.82
2019-04-11T22:44:38.693Z,20.81
2019-04-11T22:47:08.674Z,20.80
2019-04-11T22:49:39.328Z,20.80
2019-04-11T22:52:11.410Z,20.79
2019-04-11T22:54:41.784Z,20.80
2019-04-11T22:57:12.097Z,20.78
2019-04-11T22:59:45.075Z,20.78
2019-04-11T23:02:27.391Z,20.77
2019-04-11T23:04:56.952Z,20.76
2019-04-11T23:07:26.496Z,20.76
2019-04-11T23:09:57.327Z,20.75
2019-04-11T23:12:26.802Z,20.75
2019-04-11T23:14:56.347Z,20.74
2019-04-11T23:17:26.220Z,20.74
2019-04-11T23:19:55.782Z,20.74
2019-04-11T23:22:25.431Z,20.74
2019-04-11T23:24:54.981Z,20.75
2019-04-11T23:27:42.658Z,20.73
2019-04-11T23:30:15.910Z,20.73
2019-04-11T23:32:44.885Z,20.72
2019-04-11T23:35:14.435Z,20.71
2019-04-11T23:37:51.757Z,20.71
2019-04-11T23:40:21.987Z,20.71
2019-04-11T23:42:51.642Z,20.71
2019-04-11T23:45:24.185Z,20.70
2019-04-11T23:47:54.450Z,20.70
2019-04-11T23:50:25.252Z,20.70
2019-04-11T23:52:57.888Z,20.70
2019-04-11T23:55:29.886Z,20.70
2019-04-11T23:58:01.426Z,20.68
